createdAt,value
2023-04-21T00:00:07.808Z,7.40
2023-04-21T00:02:39.779Z,7.70
2023-04-21T00:05:12.554Z,7.13
2023-04-21T00:07:41.756Z,7.00
2023-04-21T00:10:10.829Z,8.18
2023-04-21T00:12:39.280Z,7.75
2023-04-21T00:15:09.591Z,7.25
2023-04-21T00:17:39.375Z,7.28
2023-04-21T00:20:10.669Z,7.05
2023-04-21T00:22:39.143Z,7.35
2023-04-21T00:25:08.785Z,7.00
2023-04-21T00:27:37.269Z,7.50
2023-04-21T00:30:07.027Z,7.25
2023-04-21T00:32:35.728Z,7.55
2023-04-21T00:35:06.334Z,7.07
2023-04-21T00:37:34.832Z,7.68
2023-04-21T00:40:04.261Z,7.18
2023-04-21T00:42:32.866Z,6.90
2023-04-21T00:45:01.268Z,6.93
2023-04-21T00:47:29.779Z,7.63
2023-04-21T00:49:58.829Z,7.72
2023-04-21T00:52:28.788Z,7.70
2023-04-21T00:54:57.157Z,7.50
2023-04-21T00:57:25.570Z,8.10
2023-04-21T00:59:54.190Z,6.57
2023-04-21T01:02:22.868Z,7.45
2023-04-21T01:04:51.399Z,7.20
2023-04-21T01:07:19.882Z,7.55
2023-04-21T01:09:49.652Z,7.53
2023-04-21T01:12:18.125Z,7.43
2023-04-21T01:14:46.500Z,7.40
2023-04-21T01:17:15.091Z,7.65
2023-04-21T01:19:43.952Z,7.78
2023-04-21T01:22:15.423Z,7.05
2023-04-21T01:24:45.213Z,8.02
2023-04-21T01:27:14.163Z,7.97
2023-04-21T01:29:43.302Z,7.25
2023-04-21T01:32:13.126Z,7.70
2023-04-21T01:34:41.927Z,7.93
2023-04-21T01:37:10.659Z,7.35
2023-04-21T01:39:41.250Z,7.60
2023-04-21T01:42:09.818Z,7.93
2023-04-21T01:44:38.460Z,7.80
2023-04-21T01:47:07.065Z,7.35
2023-04-21T01:49:35.501Z,7.10
2023-04-21T01:52:03.883Z,6.95
2023-04-21T01:54:32.246Z,7.40
2023-04-21T01:57:02.033Z,7.68
2023-04-21T01:59:30.442Z,7.43
2023-04-21T02:01:58.966Z,7.35
2023-04-21T02:04:27.611Z,7.50
2023-04-21T02:06:56.137Z,7.05
2023-04-21T02:09:24.466Z,7.50
2023-04-21T02:11:52.808Z,7.10
2023-04-21T02:14:22.562Z,7.10
2023-04-21T02:16:51.125Z,7.70
2023-04-21T02:19:19.687Z,7.93
2023-04-21T02:21:48.339Z,7.57
2023-04-21T02:24:16.748Z,7.65
2023-04-21T02:26:45.159Z,7.72
2023-04-21T02:29:13.594Z,7.15
2023-04-21T02:31:56.630Z,7.10
2023-04-21T02:34:27.696Z,7.25
2023-04-21T02:36:56.195Z,7.65
2023-04-21T02:39:24.579Z,7.60
2023-04-21T02:41:53.117Z,7.22
2023-04-21T02:44:21.470Z,7.32
2023-04-21T02:46:51.369Z,7.47
2023-04-21T02:49:20.166Z,7.47
2023-04-21T02:51:48.753Z,7.30
2023-04-21T02:54:17.136Z,7.75
2023-04-21T02:56:45.635Z,7.03
2023-04-21T02:59:16.446Z,7.88
2023-04-21T03:01:46.384Z,7.68
2023-04-21T03:04:16.516Z,7.30
2023-04-21T03:06:45.417Z,7.15
2023-04-21T03:09:13.719Z,7.35
2023-04-21T03:11:42.084Z,7.25
2023-04-21T03:14:10.424Z,8.20
2023-04-21T03:16:38.870Z,7.55
2023-04-21T03:19:07.274Z,8.00
2023-04-21T03:21:40.108Z,8.10
2023-04-21T03:24:08.880Z,7.43
2023-04-21T03:26:37.275Z,7.75
2023-04-21T03:29:05.613Z,7.60
2023-04-21T03:31:34.076Z,7.40
2023-04-21T03:34:02.458Z,7.80
2023-04-21T03:36:31.447Z,7.68
2023-04-21T03:39:12.656Z,7.65
2023-04-21T03:41:48.269Z,7.25
2023-04-21T03:44:16.655Z,7.25
2023-04-21T03:46:45.422Z,7.72
2023-04-21T03:49:13.847Z,7.60
2023-04-21T03:51:42.206Z,7.70
2023-04-21T03:54:12.038Z,7.88
2023-04-21T03:56:40.391Z,10.25
2023-04-21T03:59:08.744Z,7.80
2023-04-21T04:01:37.180Z,7.50
2023-04-21T04:04:06.031Z,8.15
2023-04-21T04:06:35.702Z,7.85
2023-04-21T04:09:04.717Z,7.75
2023-04-21T04:11:34.494Z,7.95
2023-04-21T04:14:02.882Z,7.95
2023-04-21T04:16:31.360Z,8.02
2023-04-21T04:18:59.800Z,7.35
2023-04-21T04:21:28.690Z,7.55
2023-04-21T04:23:57.086Z,7.90
2023-04-21T04:26:25.890Z,7.63
2023-04-21T04:28:56.533Z,8.75
2023-04-21T04:31:25.791Z,8.00
2023-04-21T04:33:55.454Z,7.88
2023-04-21T04:36:24.215Z,7.30
2023-04-21T04:38:52.621Z,8.07
2023-04-21T04:41:21.097Z,7.75
2023-04-21T04:43:52.287Z,7.85
2023-04-21T04:46:22.033Z,7.50
2023-04-21T04:48:50.506Z,8.25
2023-04-21T04:51:18.939Z,8.02
2023-04-21T04:53:47.337Z,7.72
2023-04-21T04:56:16.119Z,7.28
2023-04-21T04:58:46.536Z,7.22
2023-04-21T05:01:15.050Z,8.68
2023-04-21T05:03:45.151Z,7.20
2023-04-21T05:06:14.142Z,8.80
2023-04-21T05:08:42.571Z,7.68
2023-04-21T05:11:10.931Z,7.47
2023-04-21T05:13:40.245Z,7.57
2023-04-21T05:16:10.250Z,7.40
2023-04-21T05:18:39.312Z,8.38
2023-04-21T05:21:09.150Z,7.13
2023-04-21T05:23:37.470Z,7.30
2023-04-21T05:26:06.039Z,7.82
2023-04-21T05:28:35.875Z,7.85
2023-04-21T05:31:04.245Z,8.32
2023-04-21T05:33:32.779Z,7.90
2023-04-21T05:36:01.177Z,7.07
2023-04-21T05:38:31.020Z,6.60
2023-04-21T05:40:59.401Z,7.75
2023-04-21T05:43:27.775Z,7.30
2023-04-21T05:45:56.245Z,7.60
2023-04-21T05:48:24.643Z,7.80
2023-04-21T05:50:53.077Z,8.27
2023-04-21T05:53:21.452Z,8.20
2023-04-21T05:55:51.176Z,7.72
2023-04-21T05:58:19.595Z,7.22
2023-04-21T06:00:49.259Z,8.25
2023-04-21T06:03:17.905Z,8.75
2023-04-21T06:05:47.508Z,8.27
2023-04-21T06:08:15.956Z,8.23
2023-04-21T06:10:44.292Z,7.45
2023-04-21T06:13:14.011Z,8.45
2023-04-21T06:15:42.478Z,8.07
2023-04-21T06:18:11.067Z,7.95
2023-04-21T06:20:40.953Z,8.32
2023-04-21T06:23:09.937Z,8.90
2023-04-21T06:25:38.423Z,8.95
2023-04-21T06:28:06.923Z,8.68
2023-04-21T06:30:36.773Z,8.70
2023-04-21T06:33:06.845Z,9.20
2023-04-21T06:35:35.368Z,9.38
2023-04-21T06:38:04.029Z,8.98
2023-04-21T06:40:32.461Z,10.63
2023-04-21T06:43:00.864Z,10.43
2023-04-21T06:45:29.360Z,12.95
2023-04-21T06:47:59.108Z,11.40
2023-04-21T06:50:27.661Z,10.18
2023-04-21T06:52:56.090Z,9.73
2023-04-21T06:55:24.554Z,11.13
2023-04-21T06:57:52.963Z,10.60
2023-04-21T07:00:21.585Z,10.52
2023-04-21T07:02:50.015Z,11.18
2023-04-21T07:05:20.282Z,10.73
2023-04-21T07:07:48.737Z,10.02
2023-04-21T07:10:19.919Z,10.35
2023-04-21T07:12:48.425Z,9.75
2023-04-21T07:15:17.328Z,10.55
2023-04-21T07:17:45.883Z,9.82
2023-04-21T07:20:14.463Z,9.95
2023-04-21T07:22:44.298Z,9.23
2023-04-21T07:25:12.998Z,9.23
2023-04-21T07:27:41.507Z,10.25
2023-04-21T07:30:11.060Z,9.98
2023-04-21T07:32:39.638Z,9.40
2023-04-21T07:35:08.878Z,10.00
2023-04-21T07:37:37.332Z,9.75
2023-04-21T07:40:09.200Z,9.75
2023-04-21T07:42:37.598Z,9.38
2023-04-21T07:45:06.727Z,10.48
2023-04-21T07:47:35.390Z,9.35
2023-04-21T07:50:03.805Z,9.93
2023-04-21T07:52:32.549Z,9.48
2023-04-21T07:55:00.970Z,8.65
2023-04-21T07:57:31.987Z,8.82
2023-04-21T08:00:00.437Z,9.30
2023-04-21T08:02:29.163Z,9.05
2023-04-21T08:04:57.665Z,8.85
2023-04-21T08:07:26.146Z,9.15
2023-04-21T08:09:57.514Z,8.52
2023-04-21T08:12:25.923Z,8.45
2023-04-21T08:14:55.824Z,8.55
2023-04-21T08:17:24.370Z,8.52
2023-04-21T08:19:52.903Z,9.13
2023-04-21T08:22:21.292Z,8.70
2023-04-21T08:24:49.737Z,8.30
2023-04-21T08:27:18.216Z,8.10
2023-04-21T08:29:46.754Z,8.88
2023-04-21T08:32:22.294Z,8.27
2023-04-21T08:34:51.939Z,8.10
2023-04-21T08:37:20.362Z,7.82
2023-04-21T08:39:50.860Z,7.90
2023-04-21T08:42:19.402Z,8.05
2023-04-21T08:44:47.911Z,7.75
2023-04-21T08:47:17.665Z,8.88
2023-04-21T08:49:46.263Z,8.07
2023-04-21T08:52:14.993Z,7.90
2023-04-21T08:54:43.432Z,7.25
2023-04-21T08:57:15.656Z,7.93
2023-04-21T08:59:44.487Z,7.72
2023-04-21T09:02:15.256Z,7.43
2023-04-21T09:07:31.684Z,7.82
2023-04-21T09:10:01.451Z,7.47
2023-04-21T09:12:30.431Z,7.97
2023-04-21T09:14:59.218Z,6.90
2023-04-21T09:17:33.572Z,7.45
2023-04-21T09:20:15.950Z,7.25
2023-04-21T09:22:44.522Z,7.25
2023-04-21T09:25:17.615Z,7.35
2023-04-21T09:27:46.698Z,6.90
2023-04-21T09:30:16.004Z,6.60
2023-04-21T09:32:44.565Z,6.97
2023-04-21T09:35:14.369Z,7.25
2023-04-21T09:37:44.771Z,7.05
2023-04-21T09:40:15.179Z,6.57
2023-04-21T09:42:44.919Z,6.78
2023-04-21T09:47:46.718Z,6.97
2023-04-21T09:50:20.595Z,6.00
2023-04-21T09:52:58.180Z,7.05
2023-04-21T09:55:29.101Z,6.80
2023-04-21T09:58:00.620Z,6.43
2023-04-21T10:00:31.150Z,6.70
2023-04-21T10:03:00.128Z,6.35
2023-04-21T10:05:30.205Z,6.05
2023-04-21T10:07:58.739Z,6.65
2023-04-21T10:10:29.871Z,6.72
2023-04-21T10:12:58.582Z,7.18
2023-04-21T10:15:34.507Z,6.43
2023-04-21T10:18:17.500Z,6.32
2023-04-21T10:21:07.286Z,6.28
2023-04-21T10:23:39.552Z,6.85
2023-04-21T10:26:13.483Z,5.90
2023-04-21T10:28:55.578Z,6.15
2023-04-21T10:31:33.484Z,6.05
2023-04-21T10:34:21.814Z,6.50
2023-04-21T10:37:13.225Z,6.15
2023-04-21T10:39:48.360Z,6.00
2023-04-21T10:42:23.123Z,5.72
2023-04-21T10:45:02.606Z,6.15
2023-04-21T10:47:34.514Z,5.75
2023-04-21T10:50:11.825Z,5.75
2023-04-21T10:52:43.427Z,5.82
2023-04-21T10:55:12.814Z,6.05
2023-04-21T10:57:44.802Z,5.57
2023-04-21T11:00:16.832Z,5.68
2023-04-21T11:02:45.537Z,5.50
2023-04-21T11:05:14.159Z,5.70
2023-04-21T11:07:44.021Z,5.80
2023-04-21T11:10:12.753Z,6.05
2023-04-21T11:12:41.789Z,5.45
2023-04-21T11:15:11.935Z,5.57
2023-04-21T11:17:43.435Z,6.25
2023-04-21T11:20:12.322Z,5.15
2023-04-21T11:22:40.922Z,5.75
2023-04-21T11:25:18.876Z,5.72
2023-04-21T11:27:55.961Z,5.03
2023-04-21T11:30:32.637Z,6.28
2023-04-21T11:33:01.127Z,5.22
2023-04-21T11:35:29.546Z,5.90
2023-04-21T11:37:58.023Z,5.65
2023-04-21T11:40:27.830Z,5.40
2023-04-21T11:42:56.251Z,5.35
2023-04-21T11:45:24.772Z,5.68
2023-04-21T11:47:53.169Z,5.93
2023-04-21T11:50:32.735Z,5.60
2023-04-21T11:53:03.165Z,5.43
2023-04-21T11:55:34.641Z,5.72
2023-04-21T11:58:03.527Z,5.38
2023-04-21T12:00:32.255Z,5.53
2023-04-21T12:03:00.903Z,5.47
2023-04-21T12:05:36.432Z,5.85
2023-04-21T12:08:06.388Z,4.80
2023-04-21T12:10:36.496Z,5.50
2023-04-21T12:13:04.899Z,5.53
2023-04-21T12:15:33.451Z,5.47
2023-04-21T12:18:01.906Z,5.45
2023-04-21T12:20:31.011Z,5.13
2023-04-21T12:23:01.152Z,5.05
2023-04-21T12:25:29.804Z,4.80
2023-04-21T12:28:00.819Z,4.90
2023-04-21T12:30:29.288Z,5.43
2023-04-21T12:32:57.844Z,5.32
2023-04-21T12:35:27.234Z,4.82
2023-04-21T12:37:55.665Z,5.07
2023-04-21T12:40:24.186Z,5.53
2023-04-21T12:42:52.593Z,5.22
2023-04-21T12:45:22.416Z,4.85
2023-04-21T12:47:51.137Z,5.28
2023-04-21T12:50:19.560Z,4.90
2023-04-21T12:52:48.552Z,5.30
2023-04-21T12:55:17.173Z,5.53
2023-04-21T12:57:45.572Z,4.65
2023-04-21T13:00:15.948Z,5.07
2023-04-21T13:02:45.913Z,5.25
2023-04-21T13:05:15.237Z,5.38
2023-04-21T13:07:43.778Z,5.18
2023-04-21T13:10:12.686Z,4.95
2023-04-21T13:12:41.527Z,5.05
2023-04-21T13:15:11.718Z,5.05
2023-04-21T13:17:41.827Z,5.47
2023-04-21T13:20:13.604Z,5.32
2023-04-21T13:22:42.314Z,4.97
2023-04-21T13:25:11.334Z,4.70
2023-04-21T13:27:40.324Z,5.90
2023-04-21T13:30:10.340Z,5.22
2023-04-21T13:32:38.953Z,5.40
2023-04-21T13:35:10.598Z,5.10
2023-04-21T13:37:40.467Z,5.03
2023-04-21T13:40:10.976Z,4.97
2023-04-21T13:42:39.774Z,4.97
2023-04-21T13:45:09.717Z,5.22
2023-04-21T13:47:38.231Z,4.95
2023-04-21T13:50:09.150Z,4.75
2023-04-21T13:52:38.941Z,5.03
2023-04-21T13:55:08.491Z,4.90
2023-04-21T13:57:36.901Z,4.45
2023-04-21T14:00:07.121Z,4.60
2023-04-21T14:02:35.972Z,4.70
2023-04-21T14:05:05.407Z,5.25
2023-04-21T14:07:35.070Z,4.72
2023-04-21T14:10:05.363Z,4.38
2023-04-21T14:12:33.828Z,4.90
2023-04-21T14:15:02.307Z,4.50
2023-04-21T14:17:30.866Z,4.75
2023-04-21T14:19:59.262Z,4.25
2023-04-21T14:22:28.300Z,4.45
2023-04-21T14:24:56.715Z,4.80
2023-04-21T14:27:26.576Z,4.40
2023-04-21T14:29:55.008Z,4.68
2023-04-21T14:32:23.487Z,4.50
2023-04-21T14:34:53.551Z,4.57
2023-04-21T14:37:22.536Z,4.35
2023-04-21T14:39:51.220Z,5.10
2023-04-21T14:42:19.895Z,4.40
2023-04-21T14:44:49.589Z,4.47
2023-04-21T14:47:18.071Z,4.30
2023-04-21T14:49:47.263Z,4.47
2023-04-21T14:52:15.740Z,4.38
2023-04-21T14:54:44.253Z,4.68
2023-04-21T14:57:20.569Z,4.00
2023-04-21T14:59:51.719Z,4.80
2023-04-21T15:02:20.782Z,4.32
2023-04-21T15:04:49.660Z,4.22
2023-04-21T15:07:23.164Z,4.55
2023-04-21T15:09:53.132Z,4.10
2023-04-21T15:12:21.747Z,4.63
2023-04-21T15:14:51.705Z,4.68
2023-04-21T15:17:20.220Z,4.68
2023-04-21T15:19:48.606Z,6.25
2023-04-21T15:22:17.033Z,4.57
2023-04-21T15:24:45.524Z,4.47
2023-04-21T15:27:14.366Z,4.63
2023-04-21T15:29:43.339Z,4.03
2023-04-21T15:32:13.747Z,4.28
2023-04-21T15:34:42.743Z,4.57
2023-04-21T15:37:11.659Z,4.38
2023-04-21T15:39:41.577Z,4.32
2023-04-21T15:42:10.879Z,4.82
2023-04-21T15:44:40.931Z,4.47
2023-04-21T15:47:10.951Z,4.22
2023-04-21T15:49:41.312Z,4.30
2023-04-21T15:52:11.230Z,4.47
2023-04-21T15:54:40.375Z,4.18
2023-04-21T15:57:09.349Z,4.20
2023-04-21T15:59:45.955Z,4.38
2023-04-21T16:02:14.963Z,4.60
2023-04-21T16:04:45.428Z,4.40
2023-04-21T16:07:14.766Z,4.75
2023-04-21T16:09:43.570Z,4.15
2023-04-21T16:12:12.490Z,4.07
2023-04-21T16:14:54.470Z,4.60
2023-04-21T16:17:26.452Z,3.90
2023-04-21T16:19:57.487Z,4.50
2023-04-21T16:22:26.557Z,4.22
2023-04-21T16:24:55.397Z,4.18
2023-04-21T16:27:24.891Z,4.20
2023-04-21T16:29:53.735Z,4.20
2023-04-21T16:32:22.788Z,4.22
2023-04-21T16:34:51.987Z,4.40
2023-04-21T16:37:22.314Z,3.92
2023-04-21T16:39:51.184Z,4.50
2023-04-21T16:42:20.162Z,4.05
2023-04-21T16:44:50.887Z,4.03
2023-04-21T16:47:19.928Z,4.20
2023-04-21T16:49:48.866Z,3.95
2023-04-21T16:52:18.041Z,4.13
2023-04-21T16:54:48.393Z,4.47
2023-04-21T16:57:17.728Z,4.22
2023-04-21T16:59:46.595Z,3.60
2023-04-21T17:02:15.732Z,4.18
2023-04-21T17:04:44.726Z,3.83
2023-04-21T17:07:13.530Z,4.00
2023-04-21T17:09:42.218Z,3.80
2023-04-21T17:12:12.394Z,4.10
2023-04-21T17:14:41.278Z,4.25
2023-04-21T17:17:10.236Z,4.45
2023-04-21T17:19:40.448Z,4.32
2023-04-21T17:22:09.290Z,3.83
2023-04-21T17:24:51.718Z,4.40
2023-04-21T17:27:23.706Z,4.45
2023-04-21T17:29:52.626Z,5.30
2023-04-21T17:32:21.545Z,5.28
2023-04-21T17:34:50.489Z,5.15
2023-04-21T17:37:19.167Z,4.85
2023-04-21T17:39:47.849Z,4.85
2023-04-21T17:42:16.789Z,4.88
2023-04-21T17:44:47.397Z,4.78
2023-04-21T17:47:17.008Z,4.72
2023-04-21T17:49:46.191Z,4.70
2023-04-21T17:52:16.974Z,4.68
2023-04-21T17:54:47.264Z,4.60
2023-04-21T17:57:20.217Z,4.63
2023-04-21T18:00:00.134Z,4.75
2023-04-21T18:02:33.864Z,4.80
2023-04-21T18:05:11.262Z,4.60
2023-04-21T18:07:53.144Z,4.53
2023-04-21T18:10:33.783Z,4.53
2023-04-21T18:13:06.168Z,4.50
2023-04-21T18:15:44.504Z,5.43
2023-04-21T18:18:16.341Z,5.30
2023-04-21T18:20:52.868Z,5.28
2023-04-21T18:23:32.575Z,4.53
2023-04-21T18:26:03.693Z,4.57
2023-04-21T18:28:48.246Z,4.88
2023-04-21T18:31:26.235Z,4.30
2023-04-21T18:34:12.045Z,4.53
2023-04-21T18:36:46.792Z,4.80
2023-04-21T18:39:28.554Z,4.93
2023-04-21T18:42:01.758Z,4.75
2023-04-21T18:44:33.448Z,5.32
2023-04-21T18:47:13.407Z,5.32
2023-04-21T18:49:50.528Z,5.07
2023-04-21T18:52:21.493Z,4.70
2023-04-21T18:55:04.606Z,5.50
2023-04-21T18:57:40.068Z,4.72
2023-04-21T19:00:16.364Z,4.60
2023-04-21T19:02:53.508Z,4.68
2023-04-21T19:05:39.272Z,5.15
2023-04-21T19:08:11.054Z,4.50
2023-04-21T19:10:45.554Z,4.32
2023-04-21T19:13:18.894Z,4.82
2023-04-21T19:15:48.283Z,4.90
2023-04-21T19:18:20.047Z,5.15
2023-04-21T19:20:54.868Z,5.20
2023-04-21T19:23:37.592Z,4.60
2023-04-21T19:26:15.365Z,4.63
2023-04-21T19:28:50.197Z,5.03
2023-04-21T19:31:24.668Z,5.03
2023-04-21T19:33:58.651Z,4.55
2023-04-21T19:36:39.014Z,4.97
2023-04-21T19:39:09.653Z,4.82
2023-04-21T19:41:43.940Z,4.88
2023-04-21T19:44:13.396Z,5.78
2023-04-21T19:46:48.600Z,4.90
2023-04-21T19:49:35.523Z,5.25
2023-04-21T19:52:07.825Z,4.88
2023-04-21T19:54:44.671Z,4.90
2023-04-21T19:57:20.021Z,5.20
2023-04-21T19:59:59.243Z,4.90
2023-04-21T20:02:34.526Z,4.80
2023-04-21T20:05:15.248Z,4.68
2023-04-21T20:07:45.093Z,5.05
2023-04-21T20:10:15.291Z,4.82
2023-04-21T20:12:44.909Z,5.07
2023-04-21T20:15:21.574Z,5.47
2023-04-21T20:17:56.335Z,5.18
2023-04-21T20:20:31.193Z,5.10
2023-04-21T20:23:09.028Z,5.05
2023-04-21T20:25:38.539Z,6.25
2023-04-21T20:28:15.716Z,5.65
2023-04-21T20:30:45.433Z,6.32
2023-04-21T20:33:24.250Z,7.45
2023-04-21T20:35:57.599Z,7.28
2023-04-21T20:38:34.731Z,5.53
2023-04-21T20:41:05.298Z,5.93
2023-04-21T20:43:39.486Z,6.45
2023-04-21T20:46:14.021Z,6.25
2023-04-21T20:48:49.346Z,5.90
2023-04-21T20:51:37.514Z,5.78
2023-04-21T20:54:08.875Z,6.07
2023-04-21T20:56:53.187Z,5.40
2023-04-21T20:59:31.621Z,5.80
2023-04-21T21:02:02.540Z,5.53
2023-04-21T21:04:37.529Z,5.90
2023-04-21T21:07:10.055Z,5.70
2023-04-21T21:09:47.757Z,6.20
2023-04-21T21:12:29.338Z,5.65
2023-04-21T21:15:10.422Z,6.75
2023-04-21T21:17:39.471Z,7.28
2023-04-21T21:20:13.339Z,7.82
2023-04-21T21:22:48.528Z,8.20
2023-04-21T21:25:18.065Z,9.02
2023-04-21T21:27:53.621Z,8.02
2023-04-21T21:30:29.156Z,8.38
2023-04-21T21:33:03.023Z,8.05
2023-04-21T21:35:39.205Z,8.10
2023-04-21T21:38:12.340Z,8.00
2023-04-21T21:40:44.498Z,7.50
2023-04-21T21:43:17.676Z,7.10
2023-04-21T21:45:57.960Z,7.82
2023-04-21T21:48:41.972Z,7.93
2023-04-21T21:51:20.634Z,7.53
2023-04-21T21:54:06.013Z,8.07
2023-04-21T21:56:36.728Z,7.57
2023-04-21T21:59:13.275Z,7.28
2023-04-21T22:01:45.223Z,7.65
2023-04-21T22:04:18.722Z,7.22
2023-04-21T22:06:57.284Z,7.45
2023-04-21T22:09:41.256Z,7.03
2023-04-21T22:12:15.940Z,7.47
2023-04-21T22:14:45.805Z,7.57
2023-04-21T22:17:16.128Z,7.63
2023-04-21T22:19:54.074Z,7.22
2023-04-21T22:22:23.272Z,7.40
2023-04-21T22:25:04.763Z,8.23
2023-04-21T22:27:34.078Z,7.93
2023-04-21T22:30:09.193Z,7.95
2023-04-21T22:32:45.405Z,7.68
2023-04-21T22:35:22.517Z,7.75
2023-04-21T22:37:51.687Z,8.18
2023-04-21T22:40:25.280Z,7.65
2023-04-21T22:42:58.995Z,8.02
2023-04-21T22:45:31.936Z,7.93
2023-04-21T22:48:11.353Z,7.72
2023-04-21T22:50:44.322Z,7.82
2023-04-21T22:53:24.107Z,7.95
2023-04-21T22:55:59.074Z,8.27
2023-04-21T22:58:31.331Z,8.10
2023-04-21T23:01:03.140Z,8.30
2023-04-21T23:03:38.063Z,8.15
2023-04-21T23:06:11.904Z,8.32
2023-04-21T23:08:48.295Z,8.73
2023-04-21T23:11:26.658Z,8.68
2023-04-21T23:14:00.939Z,8.40
2023-04-21T23:16:35.438Z,8.15
2023-04-21T23:19:04.758Z,8.18
2023-04-21T23:21:38.829Z,8.18
2023-04-21T23:24:13.728Z,8.55
2023-04-21T23:26:44.257Z,7.97
2023-04-21T23:29:15.761Z,7.80
2023-04-21T23:31:51.776Z,8.90
2023-04-21T23:34:23.625Z,8.68
2023-04-21T23:36:55.683Z,9.00
2023-04-21T23:39:38.434Z,8.48
2023-04-21T23:42:18.156Z,8.27
2023-04-21T23:44:47.508Z,9.38
2023-04-21T23:47:16.987Z,8.18
2023-04-21T23:49:49.143Z,8.57
2023-04-21T23:52:20.026Z,8.63
2023-04-21T23:54:58.777Z,8.43
2023-04-21T23:57:29.552Z,8.18
